sensor_id;sensor_type;location;lat;lon;timestamp;temperature;humidity
23721;DHT22;42950;52.134;5.578;2022-09-02T00:01:48;17.10;99.90
23721;DHT22;42950;52.134;5.578;2022-09-02T00:04:24;17.00;99.90
23721;DHT22;42950;52.134;5.578;2022-09-02T00:06:51;17.10;99.90
23721;DHT22;42950;52.134;5.578;2022-09-02T00:09:19;17.00;99.90
23721;DHT22;42950;52.134;5.578;2022-09-02T00:11:46;17.00;99.90
23721;DHT22;42950;52.134;5.578;2022-09-02T00:14:34;16.90;99.90
23721;DHT22;42950;52.134;5.578;2022-09-02T00:17:00;16.90;99.90
23721;DHT22;42950;52.134;5.578;2022-09-02T00:19:27;16.90;99.90
23721;DHT22;42950;52.134;5.578;2022-09-02T00:21:55;16.80;99.90
23721;DHT22;42950;52.134;5.578;2022-09-02T00:24:25;16.80;99.90
23721;DHT22;42950;52.134;5.578;2022-09-02T00:26:50;16.80;99.90
23721;DHT22;42950;52.134;5.578;2022-09-02T00:29:16;16.80;99.90
23721;DHT22;42950;52.134;5.578;2022-09-02T00:31:43;16.70;99.90
23721;DHT22;42950;52.134;5.578;2022-09-02T00:34:10;16.70;99.90
23721;DHT22;42950;52.134;5.578;2022-09-02T00:36:36;16.80;99.90
23721;DHT22;42950;52.134;5.578;2022-09-02T00:39:02;16.70;99.90
23721;DHT22;42950;52.134;5.578;2022-09-02T00:41:29;16.70;99.90
23721;DHT22;42950;52.134;5.578;2022-09-02T00:43:59;16.60;99.90
23721;DHT22;42950;52.134;5.578;2022-09-02T00:46:27;16.70;99.90
23721;DHT22;42950;52.134;5.578;2022-09-02T00:49:00;16.60;99.90
23721;DHT22;42950;52.134;5.578;2022-09-02T00:51:33;16.60;99.90
23721;DHT22;42950;52.134;5.578;2022-09-02T00:54:01;16.60;99.90
23721;DHT22;42950;52.134;5.578;2022-09-02T00:56:29;16.60;99.90
23721;DHT22;42950;52.134;5.578;2022-09-02T00:58:55;16.50;99.90
23721;DHT22;42950;52.134;5.578;2022-09-02T01:01:22;16.60;99.90
23721;DHT22;42950;52.134;5.578;2022-09-02T01:03:48;16.60;99.90
23721;DHT22;42950;52.134;5.578;2022-09-02T01:06:19;16.60;99.90
23721;DHT22;42950;52.134;5.578;2022-09-02T01:08:48;16.60;99.90
23721;DHT22;42950;52.134;5.578;2022-09-02T01:11:18;16.60;99.90
23721;DHT22;42950;52.134;5.578;2022-09-02T01:13:45;16.60;99.90
23721;DHT22;42950;52.134;5.578;2022-09-02T01:16:22;16.60;99.90
23721;DHT22;42950;52.134;5.578;2022-09-02T01:18:51;16.60;99.90
23721;DHT22;42950;52.134;5.578;2022-09-02T01:21:18;16.50;99.90
23721;DHT22;42950;52.134;5.578;2022-09-02T01:23:45;16.50;99.90
23721;DHT22;42950;52.134;5.578;2022-09-02T01:26:11;16.50;99.90
23721;DHT22;42950;52.134;5.578;2022-09-02T01:28:37;16.60;99.90
23721;DHT22;42950;52.134;5.578;2022-09-02T01:31:03;16.50;99.90
23721;DHT22;42950;52.134;5.578;2022-09-02T01:33:29;16.40;99.90
23721;DHT22;42950;52.134;5.578;2022-09-02T01:35:55;16.40;99.90
23721;DHT22;42950;52.134;5.578;2022-09-02T01:38:22;16.40;99.90
23721;DHT22;42950;52.134;5.578;2022-09-02T01:40:48;16.40;99.90
23721;DHT22;42950;52.134;5.578;2022-09-02T01:43:18;16.40;99.90
23721;DHT22;42950;52.134;5.578;2022-09-02T01:45:44;16.40;99.90
23721;DHT22;42950;52.134;5.578;2022-09-02T01:48:12;16.40;99.90
23721;DHT22;42950;52.134;5.578;2022-09-02T01:50:41;16.30;99.90
23721;DHT22;42950;52.134;5.578;2022-09-02T01:53:07;16.40;99.90
23721;DHT22;42950;52.134;5.578;2022-09-02T01:55:34;16.30;99.90
23721;DHT22;42950;52.134;5.578;2022-09-02T01:58:01;16.30;99.90
23721;DHT22;42950;52.134;5.578;2022-09-02T02:00:27;16.30;99.90
23721;DHT22;42950;52.134;5.578;2022-09-02T02:02:53;16.20;99.90
23721;DHT22;42950;52.134;5.578;2022-09-02T02:05:19;16.30;99.90
23721;DHT22;42950;52.134;5.578;2022-09-02T02:07:45;16.20;99.90
23721;DHT22;42950;52.134;5.578;2022-09-02T02:10:12;16.20;99.90
23721;DHT22;42950;52.134;5.578;2022-09-02T02:12:39;16.10;99.90
23721;DHT22;42950;52.134;5.578;2022-09-02T02:15:07;16.10;99.90
23721;DHT22;42950;52.134;5.578;2022-09-02T02:17:34;16.10;99.90
23721;DHT22;42950;52.134;5.578;2022-09-02T02:20:00;16.10;99.90
23721;DHT22;42950;52.134;5.578;2022-09-02T02:22:25;16.10;99.90
23721;DHT22;42950;52.134;5.578;2022-09-02T02:24:52;16.10;99.90
23721;DHT22;42950;52.134;5.578;2022-09-02T02:27:18;16.00;99.90
23721;DHT22;42950;52.134;5.578;2022-09-02T02:29:44;16.00;99.90
23721;DHT22;42950;52.134;5.578;2022-09-02T02:32:09;16.00;99.90
23721;DHT22;42950;52.134;5.578;2022-09-02T02:34:35;16.00;99.90
23721;DHT22;42950;52.134;5.578;2022-09-02T02:37:01;15.90;99.90
23721;DHT22;42950;52.134;5.578;2022-09-02T02:39:27;15.90;99.90
23721;DHT22;42950;52.134;5.578;2022-09-02T02:41:52;15.90;99.90
23721;DHT22;42950;52.134;5.578;2022-09-02T02:44:18;15.90;99.90
23721;DHT22;42950;52.134;5.578;2022-09-02T02:46:44;15.80;99.90
23721;DHT22;42950;52.134;5.578;2022-09-02T02:49:09;15.90;99.90
23721;DHT22;42950;52.134;5.578;2022-09-02T02:51:35;15.90;99.90
23721;DHT22;42950;52.134;5.578;2022-09-02T02:54:01;15.80;99.90
23721;DHT22;42950;52.134;5.578;2022-09-02T02:56:28;15.80;99.90
23721;DHT22;42950;52.134;5.578;2022-09-02T02:58:55;15.80;99.90
23721;DHT22;42950;52.134;5.578;2022-09-02T03:01:21;15.80;99.90
23721;DHT22;42950;52.134;5.578;2022-09-02T03:03:46;15.80;99.90
23721;DHT22;42950;52.134;5.578;2022-09-02T03:06:12;15.80;99.90
23721;DHT22;42950;52.134;5.578;2022-09-02T03:08:37;15.80;99.90
23721;DHT22;42950;52.134;5.578;2022-09-02T03:11:03;15.90;99.90
23721;DHT22;42950;52.134;5.578;2022-09-02T03:13:32;15.80;99.90
23721;DHT22;42950;52.134;5.578;2022-09-02T03:15:58;15.70;99.90
23721;DHT22;42950;52.134;5.578;2022-09-02T03:18:23;15.70;99.90
23721;DHT22;42950;52.134;5.578;2022-09-02T03:20:49;15.70;99.90
23721;DHT22;42950;52.134;5.578;2022-09-02T03:23:15;15.70;99.90
23721;DHT22;42950;52.134;5.578;2022-09-02T03:25:43;15.70;99.90
23721;DHT22;42950;52.134;5.578;2022-09-02T03:28:10;15.70;99.90
23721;DHT22;42950;52.134;5.578;2022-09-02T03:30:37;15.70;99.90
23721;DHT22;42950;52.134;5.578;2022-09-02T03:33:03;15.70;99.90
23721;DHT22;42950;52.134;5.578;2022-09-02T03:35:30;15.60;99.90
23721;DHT22;42950;52.134;5.578;2022-09-02T03:37:57;15.60;99.90
23721;DHT22;42950;52.134;5.578;2022-09-02T03:40:25;15.60;99.90
23721;DHT22;42950;52.134;5.578;2022-09-02T03:42:51;15.60;99.90
23721;DHT22;42950;52.134;5.578;2022-09-02T03:45:19;15.70;99.90
23721;DHT22;42950;52.134;5.578;2022-09-02T03:47:45;15.70;99.90
23721;DHT22;42950;52.134;5.578;2022-09-02T03:50:30;15.70;99.90
23721;DHT22;42950;52.134;5.578;2022-09-02T03:52:57;15.70;99.90
23721;DHT22;42950;52.134;5.578;2022-09-02T03:55:23;15.70;99.90
23721;DHT22;42950;52.134;5.578;2022-09-02T03:57:49;15.70;99.90
23721;DHT22;42950;52.134;5.578;2022-09-02T04:00:17;15.60;99.90
23721;DHT22;42950;52.134;5.578;2022-09-02T04:02:43;15.60;99.90
23721;DHT22;42950;52.134;5.578;2022-09-02T04:05:09;15.60;99.90
23721;DHT22;42950;52.134;5.578;2022-09-02T04:07:37;15.60;99.90
23721;DHT22;42950;52.134;5.578;2022-09-02T04:10:03;15.60;99.90
23721;DHT22;42950;52.134;5.578;2022-09-02T04:12:28;15.50;99.90
23721;DHT22;42950;52.134;5.578;2022-09-02T04:14:54;15.50;99.90
23721;DHT22;42950;52.134;5.578;2022-09-02T04:17:19;15.60;99.90
23721;DHT22;42950;52.134;5.578;2022-09-02T04:19:45;15.50;99.90
23721;DHT22;42950;52.134;5.578;2022-09-02T04:22:10;15.50;99.90
23721;DHT22;42950;52.134;5.578;2022-09-02T04:24:36;15.50;99.90
23721;DHT22;42950;52.134;5.578;2022-09-02T04:27:03;15.50;99.90
23721;DHT22;42950;52.134;5.578;2022-09-02T04:29:28;15.50;99.90
23721;DHT22;42950;52.134;5.578;2022-09-02T04:31:55;15.50;99.90
23721;DHT22;42950;52.134;5.578;2022-09-02T04:34:21;15.50;99.90
23721;DHT22;42950;52.134;5.578;2022-09-02T04:36:47;15.50;99.90
23721;DHT22;42950;52.134;5.578;2022-09-02T04:39:12;15.40;99.90
23721;DHT22;42950;52.134;5.578;2022-09-02T04:41:38;15.40;99.90
23721;DHT22;42950;52.134;5.578;2022-09-02T04:44:04;15.40;99.90
23721;DHT22;42950;52.134;5.578;2022-09-02T04:46:31;15.40;99.90
23721;DHT22;42950;52.134;5.578;2022-09-02T04:48:56;15.40;99.90
23721;DHT22;42950;52.134;5.578;2022-09-02T04:51:23;15.40;99.90
23721;DHT22;42950;52.134;5.578;2022-09-02T04:53:50;15.40;99.90
23721;DHT22;42950;52.134;5.578;2022-09-02T04:56:20;15.40;99.90
23721;DHT22;42950;52.134;5.578;2022-09-02T04:58:46;15.30;99.90
23721;DHT22;42950;52.134;5.578;2022-09-02T05:01:15;15.30;99.90
23721;DHT22;42950;52.134;5.578;2022-09-02T05:03:43;15.30;99.90
23721;DHT22;42950;52.134;5.578;2022-09-02T05:06:12;15.30;99.90
23721;DHT22;42950;52.134;5.578;2022-09-02T05:08:38;15.30;99.90
23721;DHT22;42950;52.134;5.578;2022-09-02T05:11:07;15.30;99.90
23721;DHT22;42950;52.134;5.578;2022-09-02T05:13:32;15.30;99.90
23721;DHT22;42950;52.134;5.578;2022-09-02T05:15:58;15.30;99.90
23721;DHT22;42950;52.134;5.578;2022-09-02T05:18:24;15.30;99.90
23721;DHT22;42950;52.134;5.578;2022-09-02T05:20:49;15.30;99.90
23721;DHT22;42950;52.134;5.578;2022-09-02T05:23:15;15.30;99.90
23721;DHT22;42950;52.134;5.578;2022-09-02T05:25:41;15.30;99.90
23721;DHT22;42950;52.134;5.578;2022-09-02T05:28:07;15.30;99.90
23721;DHT22;42950;52.134;5.578;2022-09-02T05:30:37;15.30;99.90
23721;DHT22;42950;52.134;5.578;2022-09-02T05:33:04;15.30;99.90
23721;DHT22;42950;52.134;5.578;2022-09-02T05:35:29;15.30;99.90
23721;DHT22;42950;52.134;5.578;2022-09-02T05:37:55;15.30;99.90
23721;DHT22;42950;52.134;5.578;2022-09-02T05:40:21;15.40;99.90
23721;DHT22;42950;52.134;5.578;2022-09-02T05:42:46;15.40;99.90
23721;DHT22;42950;52.134;5.578;2022-09-02T05:45:12;15.40;99.90
23721;DHT22;42950;52.134;5.578;2022-09-02T05:47:38;15.50;99.90
23721;DHT22;42950;52.134;5.578;2022-09-02T05:50:04;15.60;99.90
23721;DHT22;42950;52.134;5.578;2022-09-02T05:52:30;15.60;99.90
23721;DHT22;42950;52.134;5.578;2022-09-02T05:54:56;15.60;99.90
23721;DHT22;42950;52.134;5.578;2022-09-02T05:57:23;15.60;99.90
23721;DHT22;42950;52.134;5.578;2022-09-02T05:59:49;15.50;99.90
23721;DHT22;42950;52.134;5.578;2022-09-02T06:02:21;15.60;99.90
23721;DHT22;42950;52.134;5.578;2022-09-02T06:04:50;15.60;99.90
23721;DHT22;42950;52.134;5.578;2022-09-02T06:07:19;15.70;99.90
23721;DHT22;42950;52.134;5.578;2022-09-02T06:09:45;15.80;99.90
23721;DHT22;42950;52.134;5.578;2022-09-02T06:12:12;15.80;99.90
23721;DHT22;42950;52.134;5.578;2022-09-02T06:14:39;15.80;99.90
23721;DHT22;42950;52.134;5.578;2022-09-02T06:17:05;15.90;99.90
23721;DHT22;42950;52.134;5.578;2022-09-02T06:19:31;16.00;99.90
23721;DHT22;42950;52.134;5.578;2022-09-02T06:21:58;16.10;99.90
23721;DHT22;42950;52.134;5.578;2022-09-02T06:24:25;16.10;99.90
23721;DHT22;42950;52.134;5.578;2022-09-02T06:26:51;16.20;99.90
23721;DHT22;42950;52.134;5.578;2022-09-02T06:29:20;16.20;99.90
23721;DHT22;42950;52.134;5.578;2022-09-02T06:31:48;16.30;99.90
23721;DHT22;42950;52.134;5.578;2022-09-02T06:34:15;16.30;99.90
23721;DHT22;42950;52.134;5.578;2022-09-02T06:36:43;16.40;99.90
23721;DHT22;42950;52.134;5.578;2022-09-02T06:39:12;16.40;99.90
23721;DHT22;42950;52.134;5.578;2022-09-02T06:41:39;16.50;99.90
23721;DHT22;42950;52.134;5.578;2022-09-02T06:44:07;16.50;99.90
23721;DHT22;42950;52.134;5.578;2022-09-02T06:46:36;16.50;99.90
23721;DHT22;42950;52.134;5.578;2022-09-02T06:49:03;16.60;99.90
23721;DHT22;42950;52.134;5.578;2022-09-02T06:51:31;16.60;99.90
23721;DHT22;42950;52.134;5.578;2022-09-02T06:53:59;16.60;99.90
23721;DHT22;42950;52.134;5.578;2022-09-02T06:56:25;16.60;99.90
23721;DHT22;42950;52.134;5.578;2022-09-02T06:58:51;16.70;99.90
23721;DHT22;42950;52.134;5.578;2022-09-02T07:01:22;16.70;99.90
23721;DHT22;42950;52.134;5.578;2022-09-02T07:03:48;16.70;99.90
23721;DHT22;42950;52.134;5.578;2022-09-02T07:06:34;16.80;99.90
23721;DHT22;42950;52.134;5.578;2022-09-02T07:09:03;16.80;99.90
23721;DHT22;42950;52.134;5.578;2022-09-02T07:11:29;16.80;99.90
23721;DHT22;42950;52.134;5.578;2022-09-02T07:13:55;16.90;99.90
23721;DHT22;42950;52.134;5.578;2022-09-02T07:16:20;16.90;99.90
23721;DHT22;42950;52.134;5.578;2022-09-02T07:18:46;16.90;99.90
23721;DHT22;42950;52.134;5.578;2022-09-02T07:21:12;17.00;99.90
23721;DHT22;42950;52.134;5.578;2022-09-02T07:23:38;17.10;99.90
23721;DHT22;42950;52.134;5.578;2022-09-02T07:26:13;17.20;99.90
23721;DHT22;42950;52.134;5.578;2022-09-02T07:28:40;17.30;99.90
23721;DHT22;42950;52.134;5.578;2022-09-02T07:31:09;17.30;99.90
23721;DHT22;42950;52.134;5.578;2022-09-02T07:33:34;17.50;99.90
23721;DHT22;42950;52.134;5.578;2022-09-02T07:36:03;17.70;99.90
23721;DHT22;42950;52.134;5.578;2022-09-02T07:38:30;17.90;99.90
23721;DHT22;42950;52.134;5.578;2022-09-02T07:40:56;18.10;99.90
23721;DHT22;42950;52.134;5.578;2022-09-02T07:43:21;18.30;99.90
23721;DHT22;42950;52.134;5.578;2022-09-02T07:45:47;18.50;99.90
23721;DHT22;42950;52.134;5.578;2022-09-02T07:48:14;18.70;99.90
23721;DHT22;42950;52.134;5.578;2022-09-02T07:50:40;18.90;99.90
23721;DHT22;42950;52.134;5.578;2022-09-02T07:53:06;19.10;99.90
23721;DHT22;42950;52.134;5.578;2022-09-02T07:55:33;19.30;99.90
23721;DHT22;42950;52.134;5.578;2022-09-02T07:58:01;19.50;99.90
23721;DHT22;42950;52.134;5.578;2022-09-02T08:00:28;19.60;99.90
23721;DHT22;42950;52.134;5.578;2022-09-02T08:02:54;19.80;99.90
23721;DHT22;42950;52.134;5.578;2022-09-02T08:05:20;19.90;99.90
23721;DHT22;42950;52.134;5.578;2022-09-02T08:07:46;20.10;99.90
23721;DHT22;42950;52.134;5.578;2022-09-02T08:10:12;20.00;99.90
23721;DHT22;42950;52.134;5.578;2022-09-02T08:12:41;20.10;99.90
23721;DHT22;42950;52.134;5.578;2022-09-02T08:15:07;20.20;99.90
23721;DHT22;42950;52.134;5.578;2022-09-02T08:17:34;20.30;99.90
23721;DHT22;42950;52.134;5.578;2022-09-02T08:20:00;20.40;99.90
23721;DHT22;42950;52.134;5.578;2022-09-02T08:22:32;20.50;99.90
23721;DHT22;42950;52.134;5.578;2022-09-02T08:24:58;20.60;99.90
23721;DHT22;42950;52.134;5.578;2022-09-02T08:27:24;20.70;99.90
23721;DHT22;42950;52.134;5.578;2022-09-02T08:29:52;20.70;99.90
23721;DHT22;42950;52.134;5.578;2022-09-02T08:32:18;20.80;99.90
23721;DHT22;42950;52.134;5.578;2022-09-02T08:34:43;20.70;99.90
23721;DHT22;42950;52.134;5.578;2022-09-02T08:37:09;20.80;99.90
23721;DHT22;42950;52.134;5.578;2022-09-02T08:39:34;20.70;99.90
23721;DHT22;42950;52.134;5.578;2022-09-02T08:42:35;20.80;99.90
23721;DHT22;42950;52.134;5.578;2022-09-02T08:47:34;21.00;99.90
23721;DHT22;42950;52.134;5.578;2022-09-02T08:50:04;21.20;99.90
23721;DHT22;42950;52.134;5.578;2022-09-02T08:53:10;21.30;99.90
23721;DHT22;42950;52.134;5.578;2022-09-02T08:55:44;21.60;99.90
23721;DHT22;42950;52.134;5.578;2022-09-02T08:58:18;21.80;99.90
23721;DHT22;42950;52.134;5.578;2022-09-02T09:00:52;21.90;99.90
23721;DHT22;42950;52.134;5.578;2022-09-02T09:09:35;22.50;99.90
23721;DHT22;42950;52.134;5.578;2022-09-02T09:15:20;22.80;99.90
23721;DHT22;42950;52.134;5.578;2022-09-02T09:17:59;23.00;99.90
23721;DHT22;42950;52.134;5.578;2022-09-02T09:20:27;23.20;99.90
23721;DHT22;42950;52.134;5.578;2022-09-02T09:23:02;23.30;99.90
23721;DHT22;42950;52.134;5.578;2022-09-02T09:25:30;23.40;99.90
23721;DHT22;42950;52.134;5.578;2022-09-02T09:28:00;23.40;99.90
23721;DHT22;42950;52.134;5.578;2022-09-02T09:30:26;23.60;99.90
23721;DHT22;42950;52.134;5.578;2022-09-02T09:32:59;23.80;99.90
23721;DHT22;42950;52.134;5.578;2022-09-02T09:35:26;23.90;99.90
23721;DHT22;42950;52.134;5.578;2022-09-02T09:37:54;24.10;99.90
23721;DHT22;42950;52.134;5.578;2022-09-02T09:40:38;24.30;99.90
23721;DHT22;42950;52.134;5.578;2022-09-02T09:45:37;24.60;99.90
23721;DHT22;42950;52.134;5.578;2022-09-02T09:53:31;25.50;99.90
23721;DHT22;42950;52.134;5.578;2022-09-02T10:03:51;25.80;99.90
23721;DHT22;42950;52.134;5.578;2022-09-02T10:09:03;26.10;99.90
23721;DHT22;42950;52.134;5.578;2022-09-02T10:11:31;26.10;99.90
23721;DHT22;42950;52.134;5.578;2022-09-02T10:14:06;26.20;99.90
23721;DHT22;42950;52.134;5.578;2022-09-02T10:27:51;26.60;99.90
23721;DHT22;42950;52.134;5.578;2022-09-02T10:30:21;26.50;99.90
23721;DHT22;42950;52.134;5.578;2022-09-02T10:35:46;26.90;99.90
23721;DHT22;42950;52.134;5.578;2022-09-02T10:40:51;27.40;99.90
23721;DHT22;42950;52.134;5.578;2022-09-02T10:45:59;27.60;99.90
23721;DHT22;42950;52.134;5.578;2022-09-02T10:51:30;27.80;99.90
23721;DHT22;42950;52.134;5.578;2022-09-02T10:57:05;28.10;99.90
23721;DHT22;42950;52.134;5.578;2022-09-02T10:59:56;28.10;99.90
23721;DHT22;42950;52.134;5.578;2022-09-02T11:02:34;28.00;99.90
23721;DHT22;42950;52.134;5.578;2022-09-02T11:10:42;28.60;99.90
23721;DHT22;42950;52.134;5.578;2022-09-02T11:13:24;28.50;99.90
23721;DHT22;42950;52.134;5.578;2022-09-02T11:21:25;28.60;99.90
23721;DHT22;42950;52.134;5.578;2022-09-02T11:23:59;28.70;99.90
23721;DHT22;42950;52.134;5.578;2022-09-02T11:26:37;28.80;99.90
23721;DHT22;42950;52.134;5.578;2022-09-02T11:34:04;28.70;99.60
23721;DHT22;42950;52.134;5.578;2022-09-02T11:36:37;28.60;97.00
23721;DHT22;42950;52.134;5.578;2022-09-02T11:39:34;28.50;96.70
23721;DHT22;42950;52.134;5.578;2022-09-02T11:45:27;29.00;96.70
23721;DHT22;42950;52.134;5.578;2022-09-02T11:50:59;29.30;95.50
23721;DHT22;42950;52.134;5.578;2022-09-02T11:53:29;29.10;94.90
23721;DHT22;42950;52.134;5.578;2022-09-02T11:58:45;29.00;91.70
23721;DHT22;42950;52.134;5.578;2022-09-02T12:03:51;29.00;91.10
23721;DHT22;42950;52.134;5.578;2022-09-02T12:06:19;29.10;93.60
23721;DHT22;42950;52.134;5.578;2022-09-02T12:11:34;29.00;94.00
23721;DHT22;42950;52.134;5.578;2022-09-02T12:14:05;28.90;95.50
23721;DHT22;42950;52.134;5.578;2022-09-02T12:16:35;28.80;93.50
23721;DHT22;42950;52.134;5.578;2022-09-02T12:21:33;28.30;93.90
23721;DHT22;42950;52.134;5.578;2022-09-02T12:24:08;28.50;93.60
23721;DHT22;42950;52.134;5.578;2022-09-02T12:29:32;28.80;92.10
23721;DHT22;42950;52.134;5.578;2022-09-02T12:31:58;28.60;92.70
23721;DHT22;42950;52.134;5.578;2022-09-02T12:36:50;28.30;94.10
23721;DHT22;42950;52.134;5.578;2022-09-02T12:47:25;28.80;93.00
23721;DHT22;42950;52.134;5.578;2022-09-02T12:52:47;28.40;92.10
23721;DHT22;42950;52.134;5.578;2022-09-02T12:55:18;28.30;92.40
23721;DHT22;42950;52.134;5.578;2022-09-02T12:57:49;28.30;93.00
23721;DHT22;42950;52.134;5.578;2022-09-02T13:03:38;28.60;90.50
23721;DHT22;42950;52.134;5.578;2022-09-02T13:42:22;28.20;88.10
23721;DHT22;42950;52.134;5.578;2022-09-02T13:44:48;28.60;85.00
23721;DHT22;42950;52.134;5.578;2022-09-02T13:47:16;28.70;86.60
23721;DHT22;42950;52.134;5.578;2022-09-02T13:49:46;28.40;85.50
23721;DHT22;42950;52.134;5.578;2022-09-02T13:52:20;28.20;86.60
23721;DHT22;42950;52.134;5.578;2022-09-02T13:54:52;28.20;84.60
23721;DHT22;42950;52.134;5.578;2022-09-02T13:57:24;28.10;85.80
23721;DHT22;42950;52.134;5.578;2022-09-02T13:59:53;28.10;84.30
23721;DHT22;42950;52.134;5.578;2022-09-02T14:02:32;28.10;84.50
23721;DHT22;42950;52.134;5.578;2022-09-02T14:05:05;28.20;84.70
23721;DHT22;42950;52.134;5.578;2022-09-02T14:07:36;28.20;86.70
23721;DHT22;42950;52.134;5.578;2022-09-02T14:10:10;28.30;84.40
23721;DHT22;42950;52.134;5.578;2022-09-02T14:12:38;27.90;87.50
23721;DHT22;42950;52.134;5.578;2022-09-02T14:15:06;28.00;88.10
23721;DHT22;42950;52.134;5.578;2022-09-02T14:17:32;28.00;87.30
23721;DHT22;42950;52.134;5.578;2022-09-02T14:20:21;28.00;87.80
23721;DHT22;42950;52.134;5.578;2022-09-02T14:22:55;27.90;86.80
23721;DHT22;42950;52.134;5.578;2022-09-02T14:25:21;28.00;89.00
23721;DHT22;42950;52.134;5.578;2022-09-02T14:27:52;27.90;84.90
23721;DHT22;42950;52.134;5.578;2022-09-02T14:30:34;27.80;88.10
23721;DHT22;42950;52.134;5.578;2022-09-02T14:36:08;28.00;89.50
23721;DHT22;42950;52.134;5.578;2022-09-02T14:43:49;27.80;89.00
23721;DHT22;42950;52.134;5.578;2022-09-02T14:46:36;28.00;88.70
23721;DHT22;42950;52.134;5.578;2022-09-02T14:49:08;28.30;89.10
23721;DHT22;42950;52.134;5.578;2022-09-02T14:51:38;28.50;88.50
23721;DHT22;42950;52.134;5.578;2022-09-02T14:54:07;28.70;88.20
23721;DHT22;42950;52.134;5.578;2022-09-02T14:57:03;28.80;86.40
23721;DHT22;42950;52.134;5.578;2022-09-02T14:59:29;28.30;86.50
23721;DHT22;42950;52.134;5.578;2022-09-02T15:01:56;28.20;87.00
23721;DHT22;42950;52.134;5.578;2022-09-02T15:04:23;28.50;89.60
23721;DHT22;42950;52.134;5.578;2022-09-02T15:06:48;28.80;85.50
23721;DHT22;42950;52.134;5.578;2022-09-02T15:09:15;28.80;85.70
23721;DHT22;42950;52.134;5.578;2022-09-02T15:11:46;28.90;85.10
23721;DHT22;42950;52.134;5.578;2022-09-02T15:14:13;29.10;86.80
23721;DHT22;42950;52.134;5.578;2022-09-02T15:16:39;29.30;85.10
23721;DHT22;42950;52.134;5.578;2022-09-02T15:19:05;29.40;87.10
23721;DHT22;42950;52.134;5.578;2022-09-02T15:21:31;29.60;87.40
23721;DHT22;42950;52.134;5.578;2022-09-02T15:23:57;29.70;85.40
23721;DHT22;42950;52.134;5.578;2022-09-02T15:26:22;29.40;84.40
23721;DHT22;42950;52.134;5.578;2022-09-02T15:28:48;29.30;83.90
23721;DHT22;42950;52.134;5.578;2022-09-02T15:31:14;29.30;83.20
23721;DHT22;42950;52.134;5.578;2022-09-02T15:33:40;29.30;84.50
23721;DHT22;42950;52.134;5.578;2022-09-02T15:36:11;29.30;84.30
23721;DHT22;42950;52.134;5.578;2022-09-02T15:38:38;29.30;84.00
23721;DHT22;42950;52.134;5.578;2022-09-02T15:41:20;29.50;85.30
23721;DHT22;42950;52.134;5.578;2022-09-02T15:43:47;29.70;85.40
23721;DHT22;42950;52.134;5.578;2022-09-02T15:46:23;29.70;83.10
23721;DHT22;42950;52.134;5.578;2022-09-02T15:48:49;29.40;83.10
23721;DHT22;42950;52.134;5.578;2022-09-02T15:51:17;29.20;83.50
23721;DHT22;42950;52.134;5.578;2022-09-02T15:53:43;29.00;82.00
23721;DHT22;42950;52.134;5.578;2022-09-02T15:56:16;29.00;83.00
23721;DHT22;42950;52.134;5.578;2022-09-02T15:58:42;29.10;85.00
23721;DHT22;42950;52.134;5.578;2022-09-02T16:01:08;29.00;83.90
23721;DHT22;42950;52.134;5.578;2022-09-02T16:03:34;29.00;84.20
23721;DHT22;42950;52.134;5.578;2022-09-02T16:06:02;28.90;86.00
23721;DHT22;42950;52.134;5.578;2022-09-02T16:08:27;28.90;83.60
23721;DHT22;42950;52.134;5.578;2022-09-02T16:10:53;28.50;84.00
23721;DHT22;42950;52.134;5.578;2022-09-02T16:13:19;28.20;83.10
23721;DHT22;42950;52.134;5.578;2022-09-02T16:15:46;28.00;84.70
23721;DHT22;42950;52.134;5.578;2022-09-02T16:18:11;28.00;86.50
23721;DHT22;42950;52.134;5.578;2022-09-02T16:20:37;28.00;85.00
23721;DHT22;42950;52.134;5.578;2022-09-02T16:23:03;28.00;86.20
23721;DHT22;42950;52.134;5.578;2022-09-02T16:25:28;27.90;84.80
23721;DHT22;42950;52.134;5.578;2022-09-02T16:27:54;27.80;84.80
23721;DHT22;42950;52.134;5.578;2022-09-02T16:30:21;27.70;86.00
23721;DHT22;42950;52.134;5.578;2022-09-02T16:32:46;27.80;85.60
23721;DHT22;42950;52.134;5.578;2022-09-02T16:35:15;27.80;84.90
23721;DHT22;42950;52.134;5.578;2022-09-02T16:37:40;27.70;87.90
23721;DHT22;42950;52.134;5.578;2022-09-02T16:40:06;27.70;87.60
23721;DHT22;42950;52.134;5.578;2022-09-02T16:42:33;27.80;87.00
23721;DHT22;42950;52.134;5.578;2022-09-02T16:44:58;27.50;83.70
23721;DHT22;42950;52.134;5.578;2022-09-02T16:47:24;27.30;85.90
23721;DHT22;42950;52.134;5.578;2022-09-02T16:49:49;27.10;86.80
23721;DHT22;42950;52.134;5.578;2022-09-02T16:52:15;27.00;87.10
23721;DHT22;42950;52.134;5.578;2022-09-02T16:54:41;27.00;86.70
23721;DHT22;42950;52.134;5.578;2022-09-02T16:57:07;26.90;88.50
23721;DHT22;42950;52.134;5.578;2022-09-02T16:59:33;26.90;87.10
23721;DHT22;42950;52.134;5.578;2022-09-02T17:01:59;26.80;86.60
23721;DHT22;42950;52.134;5.578;2022-09-02T17:04:24;26.80;86.70
23721;DHT22;42950;52.134;5.578;2022-09-02T17:06:50;26.70;88.00
23721;DHT22;42950;52.134;5.578;2022-09-02T17:09:15;26.60;87.90
23721;DHT22;42950;52.134;5.578;2022-09-02T17:11:41;26.40;87.40
23721;DHT22;42950;52.134;5.578;2022-09-02T17:14:12;26.40;87.90
23721;DHT22;42950;52.134;5.578;2022-09-02T17:16:42;26.30;89.00
23721;DHT22;42950;52.134;5.578;2022-09-02T17:19:08;26.30;89.40
23721;DHT22;42950;52.134;5.578;2022-09-02T17:21:42;26.30;88.80
23721;DHT22;42950;52.134;5.578;2022-09-02T17:24:10;26.10;88.30
23721;DHT22;42950;52.134;5.578;2022-09-02T17:26:37;25.90;89.10
23721;DHT22;42950;52.134;5.578;2022-09-02T17:29:08;25.70;88.60
23721;DHT22;42950;52.134;5.578;2022-09-02T17:31:33;25.60;89.60
23721;DHT22;42950;52.134;5.578;2022-09-02T17:34:01;25.50;90.00
23721;DHT22;42950;52.134;5.578;2022-09-02T17:36:29;25.50;90.40
23721;DHT22;42950;52.134;5.578;2022-09-02T17:39:06;25.30;90.40
23721;DHT22;42950;52.134;5.578;2022-09-02T17:41:32;25.30;90.70
23721;DHT22;42950;52.134;5.578;2022-09-02T17:44:16;25.20;90.50
23721;DHT22;42950;52.134;5.578;2022-09-02T17:46:43;25.00;90.30
23721;DHT22;42950;52.134;5.578;2022-09-02T17:49:10;24.80;90.50
23721;DHT22;42950;52.134;5.578;2022-09-02T17:51:36;24.70;90.80
23721;DHT22;42950;52.134;5.578;2022-09-02T17:54:02;24.70;91.10
23721;DHT22;42950;52.134;5.578;2022-09-02T18:10:10;24.20;92.10
23721;DHT22;42950;52.134;5.578;2022-09-02T18:12:36;24.10;92.20
23721;DHT22;42950;52.134;5.578;2022-09-02T18:15:03;23.90;92.40
23721;DHT22;42950;52.134;5.578;2022-09-02T18:17:40;23.90;93.00
23721;DHT22;42950;52.134;5.578;2022-09-02T18:20:41;23.90;93.00
23721;DHT22;42950;52.134;5.578;2022-09-02T18:31:28;23.50;93.50
23721;DHT22;42950;52.134;5.578;2022-09-02T18:39:26;23.20;93.80